Time;durP1;ratioP1;P1;durP2;ratioP2;P2;SDS_P1;SDS_P2;PMS_P1;PMS_P2;Temp;Humidity;BMP_temperature;BMP_pressure;BME280_temperature;BME280_humidity;BME280_pressure;Samples;Min_cycle;Max_cycle;Signal;HPM_P1;HPM_P2
2022/05/20 00:01:51;;;;;;;12.38;10.18;;;14.50;99.90;;;;;;5046454;28;20385;-78
2022/05/20 00:04:16;;;;;;;13.80;11.18;;;14.50;99.90;;;;;;5035038;28;20033;-78
2022/05/20 00:06:42;;;;;;;10.93;9.25;;;14.60;99.90;;;;;;5050089;28;20041;-78
2022/05/20 00:09:08;;;;;;;10.70;9.18;;;14.60;99.90;;;;;;5046891;28;20072;-78
2022/05/20 00:11:34;;;;;;;9.93;8.63;;;14.60;99.90;;;;;;5063671;28;20044;-78
2022/05/20 00:14:01;;;;;;;9.35;8.45;;;14.60;99.90;;;;;;5064455;28;20040;-77
2022/05/20 00:16:27;;;;;;;11.65;9.82;;;14.60;99.90;;;;;;5074577;22;20106;-79
2022/05/20 00:18:52;;;;;;;13.20;10.27;;;14.60;99.90;;;;;;5053945;28;20037;-79
2022/05/20 00:21:18;;;;;;;11.85;10.55;;;14.60;99.90;;;;;;5055524;28;20131;-79
2022/05/20 00:23:43;;;;;;;11.38;8.77;;;14.70;99.90;;;;;;5064530;28;20497;-79
2022/05/20 00:26:12;;;;;;;12.00;8.85;;;14.60;99.90;;;;;;5038110;28;20041;-79
2022/05/20 00:28:38;;;;;;;12.85;9.30;;;14.60;99.90;;;;;;5046233;28;20033;-79
2022/05/20 00:31:07;;;;;;;10.65;9.55;;;14.60;99.90;;;;;;5034526;28;20102;-80
2022/05/20 00:33:35;;;;;;;15.45;10.45;;;14.60;99.90;;;;;;5049957;28;20040;-79
2022/05/20 00:36:04;;;;;;;13.07;11.70;;;14.60;99.90;;;;;;5051850;28;20048;-79
2022/05/20 00:38:31;;;;;;;14.95;12.13;;;14.60;99.90;;;;;;5028739;28;20586;-79
2022/05/20 00:41:00;;;;;;;13.73;11.77;;;14.60;99.90;;;;;;5052163;28;20128;-79
2022/05/20 00:43:26;;;;;;;17.83;12.18;;;14.70;99.90;;;;;;5052591;28;20369;-79
2022/05/20 00:45:53;;;;;;;14.02;11.98;;;14.70;99.90;;;;;;5052405;28;20040;-80
2022/05/20 00:48:19;;;;;;;15.80;12.30;;;14.70;99.90;;;;;;5051375;28;20116;-78
2022/05/20 00:50:56;;;;;;;15.10;12.43;;;14.70;99.90;;;;;;5050849;28;20128;-79
2022/05/20 00:53:26;;;;;;;15.90;12.85;;;14.70;99.90;;;;;;5057463;28;20044;-79
2022/05/20 00:55:52;;;;;;;20.95;13.65;;;14.70;99.90;;;;;;5059711;28;20068;-79
2022/05/20 00:58:23;;;;;;;16.48;13.00;;;14.70;99.90;;;;;;5052203;28;20073;-79
2022/05/20 01:00:54;;;;;;;15.55;12.55;;;14.70;99.90;;;;;;5050616;28;20055;-79
2022/05/20 01:03:24;;;;;;;17.57;12.13;;;14.70;99.90;;;;;;5054466;28;20111;-80
2022/05/20 01:05:51;;;;;;;14.25;12.18;;;14.70;99.90;;;;;;5059952;28;20466;-80
2022/05/20 01:08:23;;;;;;;15.57;12.13;;;14.70;99.90;;;;;;5066879;28;20033;-79
2022/05/20 01:10:49;;;;;;;15.45;12.75;;;14.70;99.90;;;;;;5043279;28;20043;-79
2022/05/20 01:13:18;;;;;;;18.02;12.88;;;14.70;99.90;;;;;;5071454;28;20044;-79
2022/05/20 01:15:43;;;;;;;15.43;12.25;;;14.70;99.90;;;;;;5066548;28;20440;-79
2022/05/20 01:18:10;;;;;;;20.42;13.38;;;14.70;99.90;;;;;;5035555;28;20063;-79
2022/05/20 01:20:44;;;;;;;16.40;13.57;;;14.70;99.90;;;;;;5057156;28;20044;-78
2022/05/20 01:23:13;;;;;;;16.40;13.00;;;14.70;99.90;;;;;;5044872;28;20111;-79
2022/05/20 01:25:45;;;;;;;14.75;12.35;;;14.60;99.90;;;;;;5050801;28;20401;-79
2022/05/20 01:28:11;;;;;;;;;;;14.70;99.90;;;;;;5050499;28;20048;-79
2022/05/20 01:30:41;;;;;;;15.75;12.73;;;14.70;99.90;;;;;;5048872;28;19920;-79
2022/05/20 01:33:08;;;;;;;17.13;12.95;;;14.70;99.90;;;;;;5049639;28;20087;-79
2022/05/20 01:35:46;;;;;;;17.67;12.93;;;14.70;99.90;;;;;;5063923;28;20044;-79
2022/05/20 01:38:12;;;;;;;17.23;12.55;;;14.70;99.90;;;;;;5070145;28;20536;-78
2022/05/20 01:40:46;;;;;;;18.27;12.75;;;14.70;99.90;;;;;;5056207;28;20056;-78
2022/05/20 01:43:36;;;;;;;14.20;12.25;;;14.70;99.90;;;;;;5052423;28;20505;-79
2022/05/20 01:46:27;;;;;;;15.98;12.25;;;14.70;99.90;;;;;;5051719;28;20080;-78
2022/05/20 01:49:12;;;;;;;14.80;12.98;;;14.70;99.90;;;;;;5033751;28;20045;-78
2022/05/20 01:51:44;;;;;;;18.08;13.00;;;14.80;99.90;;;;;;5049549;28;20045;-79
2022/05/20 01:54:20;;;;;;;18.33;12.45;;;14.80;99.90;;;;;;5033528;28;20124;-78
2022/05/20 01:56:56;;;;;;;16.02;12.40;;;14.80;99.90;;;;;;5041755;28;20037;-79
2022/05/20 01:59:28;;;;;;;17.75;12.68;;;14.80;99.90;;;;;;5040944;28;20467;-79
2022/05/20 02:02:11;;;;;;;17.65;12.57;;;14.80;99.90;;;;;;5049293;28;20068;-79
2022/05/20 02:04:44;;;;;;;16.35;12.50;;;14.80;99.90;;;;;;5049955;28;20041;-79
2022/05/20 02:07:17;;;;;;;17.35;13.00;;;14.80;99.90;;;;;;5049924;28;20033;-79
2022/05/20 02:10:01;;;;;;;18.75;12.32;;;14.80;99.90;;;;;;5049671;28;20037;-79
2022/05/20 02:12:29;;;;;;;16.98;12.63;;;14.80;99.90;;;;;;5047010;28;20138;-79
2022/05/20 02:17:58;;;;;;;16.98;12.35;;;14.80;99.90;;;;;;5128585;27;20547;-66
2022/05/20 02:20:30;;;;;;;19.23;13.43;;;14.80;99.90;;;;;;5129195;27;20556;-64
2022/05/20 02:23:01;;;;;;;17.73;13.85;;;14.80;99.90;;;;;;5128187;28;20043;-65
2022/05/20 02:25:30;;;;;;;19.33;13.50;;;14.80;99.90;;;;;;5119047;28;20036;-63
2022/05/20 02:28:07;;;;;;;20.45;13.60;;;14.80;99.90;;;;;;5101550;28;20032;-62
2022/05/20 02:30:33;;;;;;;18.38;13.20;;;14.80;99.90;;;;;;5100802;28;20032;-63
2022/05/20 02:33:06;;;;;;;16.58;13.02;;;14.80;99.90;;;;;;5088006;28;20040;-64
2022/05/20 02:35:33;;;;;;;15.40;12.52;;;14.80;99.90;;;;;;5103269;28;20502;-61
2022/05/20 02:38:08;;;;;;;18.27;14.45;;;14.70;99.90;;;;;;5106671;28;20501;-62
2022/05/20 02:40:34;;;;;;;18.45;13.80;;;14.70;99.90;;;;;;5103127;28;20043;-61
2022/05/20 02:43:00;;;;;;;19.90;13.55;;;14.70;99.90;;;;;;5096884;28;20040;-62
2022/05/20 02:45:26;;;;;;;18.30;13.98;;;14.70;99.90;;;;;;5087825;28;20043;-62
2022/05/20 02:47:51;;;;;;;18.70;13.35;;;14.70;99.90;;;;;;5092904;28;20159;-62
2022/05/20 02:50:17;;;;;;;17.95;13.90;;;14.70;99.90;;;;;;5094873;28;20465;-64
2022/05/20 02:52:43;;;;;;;19.45;13.48;;;14.70;99.90;;;;;;5108111;28;20102;-61
2022/05/20 02:55:09;;;;;;;21.00;14.45;;;14.70;99.90;;;;;;5106831;28;20045;-61
2022/05/20 02:57:36;;;;;;;18.52;14.05;;;14.60;99.90;;;;;;5095784;28;20446;-61
2022/05/20 03:05:32;;;;;;;17.48;13.07;;;14.60;99.90;;;;;;5102860;28;20040;-61
2022/05/20 03:07:58;;;;;;;21.65;14.18;;;14.60;99.90;;;;;;5107185;28;20434;-62
2022/05/20 03:10:24;;;;;;;17.52;13.52;;;14.50;99.90;;;;;;5097405;28;20421;-63
2022/05/20 03:12:49;;;;;;;19.33;13.60;;;14.50;99.90;;;;;;5106807;28;20039;-64
2022/05/20 03:15:17;;;;;;;17.73;13.23;;;14.50;99.90;;;;;;5106847;28;20031;-63
2022/05/20 03:17:42;;;;;;;18.77;13.02;;;14.50;99.90;;;;;;5097240;28;20056;-63
2022/05/20 03:20:09;;;;;;;17.30;13.10;;;14.40;99.90;;;;;;5084481;28;20041;-63
2022/05/20 03:22:36;;;;;;;18.70;14.38;;;14.40;99.90;;;;;;5104255;28;20124;-63
2022/05/20 03:25:02;;;;;;;20.65;14.88;;;14.40;99.90;;;;;;5104760;28;20039;-63
2022/05/20 03:27:27;;;;;;;16.95;13.65;;;14.40;99.90;;;;;;5101892;28;20036;-63
2022/05/20 03:29:53;;;;;;;20.25;13.98;;;14.40;99.90;;;;;;5090998;28;20516;-63
2022/05/20 03:32:19;;;;;;;14.93;12.82;;;14.30;99.90;;;;;;5081981;28;20123;-63
2022/05/20 03:34:44;;;;;;;19.70;13.80;;;14.30;99.90;;;;;;5092185;28;20052;-63
2022/05/20 03:37:10;;;;;;;19.73;13.75;;;14.30;99.90;;;;;;5093413;28;20062;-63
2022/05/20 03:39:36;;;;;;;16.88;12.85;;;14.30;99.90;;;;;;5089090;28;20186;-63
2022/05/20 03:42:03;;;;;;;15.57;12.43;;;14.30;99.90;;;;;;5090992;28;20493;-63
2022/05/20 03:44:29;;;;;;;18.50;14.27;;;14.20;99.90;;;;;;5091571;28;20386;-64
2022/05/20 03:46:56;;;;;;;17.40;13.27;;;14.20;99.90;;;;;;5089457;28;20055;-63
2022/05/20 03:49:24;;;;;;;17.85;13.57;;;14.10;99.90;;;;;;5090184;28;20046;-63
2022/05/20 03:51:52;;;;;;;18.13;13.77;;;14.10;99.90;;;;;;5087252;28;20050;-63
2022/05/20 03:54:19;;;;;;;19.67;14.15;;;14.00;99.90;;;;;;5091762;28;20028;-63
2022/05/20 03:56:45;;;;;;;16.48;13.10;;;14.00;99.90;;;;;;5084932;28;20040;-63
2022/05/20 03:59:11;;;;;;;16.60;13.00;;;14.00;99.90;;;;;;5080942;28;20039;-63
2022/05/20 04:01:57;;;;;;;16.25;12.82;;;14.00;99.90;;;;;;5085980;28;20032;-64
2022/05/20 04:04:30;;;;;;;18.30;13.40;;;13.90;99.90;;;;;;5092078;28;20043;-63
2022/05/20 04:06:56;;;;;;;18.13;13.13;;;13.90;99.90;;;;;;5092898;28;20047;-63
2022/05/20 04:09:22;;;;;;;16.25;12.65;;;13.90;99.90;;;;;;5088652;28;20044;-63
2022/05/20 04:11:53;;;;;;;17.35;12.40;;;13.90;99.90;;;;;;5105824;28;20043;-63
2022/05/20 04:14:18;;;;;;;15.05;12.57;;;13.90;99.90;;;;;;5077242;28;20044;-63
2022/05/20 04:16:44;;;;;;;15.40;11.73;;;13.90;99.90;;;;;;5073849;28;20044;-63
2022/05/20 04:19:10;;;;;;;12.65;11.35;;;13.80;99.90;;;;;;5091132;28;20127;-64
2022/05/20 04:21:38;;;;;;;12.90;10.45;;;13.80;99.90;;;;;;5091548;28;20393;-63
2022/05/20 04:24:04;;;;;;;14.18;11.23;;;13.70;99.90;;;;;;5080723;28;20044;-63
2022/05/20 04:26:29;;;;;;;8.98;8.02;;;13.70;99.90;;;;;;5071546;28;20398;-63
2022/05/20 04:28:55;;;;;;;8.77;7.88;;;13.60;99.90;;;;;;5072392;28;20520;-63
2022/05/20 04:31:20;;;;;;;12.30;9.40;;;13.60;99.90;;;;;;5084970;28;20040;-63
2022/05/20 04:33:46;;;;;;;12.57;9.30;;;13.60;99.90;;;;;;5091751;28;20555;-63
2022/05/20 04:36:11;;;;;;;12.50;10.93;;;13.50;99.90;;;;;;5092167;28;20051;-64
2022/05/20 04:38:37;;;;;;;12.85;11.55;;;13.50;99.90;;;;;;5087595;28;20040;-64
2022/05/20 04:49:15;;;;;;;17.67;14.07;;;13.40;99.90;;;;;;5077972;28;20048;-64
2022/05/20 04:51:41;;;;;;;16.23;13.52;;;13.40;99.90;;;;;;5087864;28;20387;-64
2022/05/20 04:56:53;;;;;;;16.83;13.57;;;13.40;99.90;;;;;;5081492;28;20216;-64
2022/05/20 04:59:20;;;;;;;15.40;13.52;;;13.30;99.90;;;;;;5081302;28;20118;-64
2022/05/20 05:01:46;;;;;;;17.70;14.43;;;13.40;99.90;;;;;;5076371;28;20044;-64
2022/05/20 05:04:12;;;;;;;17.27;15.23;;;13.40;99.90;;;;;;5087844;28;20093;-64
2022/05/20 05:06:38;;;;;;;18.48;14.95;;;13.40;99.90;;;;;;5087988;28;20040;-63
2022/05/20 05:09:04;;;;;;;18.08;14.43;;;13.40;99.90;;;;;;5088828;28;20036;-63
2022/05/20 05:11:30;;;;;;;18.75;15.75;;;13.40;99.90;;;;;;5091372;28;20043;-63
2022/05/20 05:13:55;;;;;;;17.92;14.35;;;13.40;99.90;;;;;;5080843;28;20084;-64
2022/05/20 05:16:21;;;;;;;18.25;14.93;;;13.30;99.90;;;;;;5063531;28;20044;-64
2022/05/20 05:18:47;;;;;;;20.95;15.93;;;13.40;99.90;;;;;;5078747;28;20043;-64
2022/05/20 05:21:14;;;;;;;23.95;16.02;;;13.40;99.90;;;;;;5065617;28;20203;-63
2022/05/20 05:23:40;;;;;;;21.83;15.90;;;13.40;99.90;;;;;;5071162;28;20034;-64
2022/05/20 05:26:06;;;;;;;21.08;16.27;;;13.40;99.90;;;;;;5079140;28;20047;-64
2022/05/20 05:28:32;;;;;;;21.40;16.25;;;13.40;99.90;;;;;;5089134;28;20038;-64
2022/05/20 05:30:58;;;;;;;20.30;15.95;;;13.40;99.90;;;;;;5091256;28;20040;-64
2022/05/20 05:33:24;;;;;;;22.60;16.65;;;13.50;99.90;;;;;;5091282;28;20118;-63
2022/05/20 05:35:50;;;;;;;17.63;15.82;;;13.50;99.90;;;;;;5070945;28;20036;-64
2022/05/20 05:38:16;;;;;;;19.65;16.80;;;13.50;99.90;;;;;;5077467;28;20036;-64
2022/05/20 05:40:41;;;;;;;23.90;16.83;;;13.60;99.90;;;;;;5081430;28;20044;-64
2022/05/20 05:43:07;;;;;;;21.17;17.08;;;13.60;99.90;;;;;;5092473;28;20036;-63
2022/05/20 05:45:34;;;;;;;23.58;16.75;;;13.60;99.90;;;;;;5083373;28;20040;-63
2022/05/20 05:48:10;;;;;;;24.17;16.90;;;13.60;99.90;;;;;;5087628;28;20032;-63
2022/05/20 05:50:38;;;;;;;22.45;16.98;;;13.70;99.90;;;;;;5069617;28;20052;-63
2022/05/20 05:53:14;;;;;;;25.38;17.38;;;13.70;99.90;;;;;;5089840;28;20424;-63
2022/05/20 05:55:41;;;;;;;23.25;17.85;;;13.80;99.90;;;;;;5077869;28;20076;-63
2022/05/20 05:58:08;;;;;;;23.23;17.20;;;13.90;99.90;;;;;;5074558;28;20066;-63
2022/05/20 06:00:34;;;;;;;23.83;16.88;;;14.00;99.90;;;;;;5076865;28;20040;-63
2022/05/20 06:02:59;;;;;;;22.10;15.07;;;14.10;99.90;;;;;;5074786;28;20036;-63
2022/05/20 06:05:25;;;;;;;20.17;13.80;;;14.20;99.90;;;;;;5079377;28;20036;-63
2022/05/20 06:07:53;;;;;;;19.15;13.85;;;14.30;99.90;;;;;;5081467;28;20513;-63
2022/05/20 06:10:19;;;;;;;19.70;13.23;;;14.50;99.90;;;;;;5077707;28;20502;-63
2022/05/20 06:12:45;;;;;;;18.60;13.30;;;14.40;99.90;;;;;;5091846;28;20527;-63
2022/05/20 06:15:17;;;;;;;20.92;14.43;;;14.50;99.90;;;;;;5096839;28;20080;-63
2022/05/20 06:17:43;;;;;;;22.92;14.15;;;14.60;99.90;;;;;;5063114;28;20570;-64
2022/05/20 06:20:10;;;;;;;18.38;12.90;;;14.70;99.90;;;;;;5086722;28;20115;-64
2022/05/20 06:22:35;;;;;;;18.92;13.07;;;14.80;99.90;;;;;;5093400;28;20033;-64
2022/05/20 06:25:01;;;;;;;19.42;13.50;;;14.90;99.90;;;;;;5095416;28;20051;-64
2022/05/20 06:27:27;;;;;;;17.85;12.55;;;14.90;99.90;;;;;;5087585;28;20478;-64
2022/05/20 06:29:52;;;;;;;17.77;14.00;;;15.00;99.90;;;;;;5086627;28;20413;-65
2022/05/20 06:32:18;;;;;;;19.17;13.27;;;15.00;99.90;;;;;;5088930;28;20093;-64
2022/05/20 06:40:17;;;;;;;18.13;13.32;;;15.10;99.90;;;;;;5076949;28;20036;-62
2022/05/20 06:42:43;;;;;;;17.15;13.07;;;15.00;99.90;;;;;;5087342;28;20080;-64
2022/05/20 06:45:10;;;;;;;20.50;13.68;;;15.10;99.90;;;;;;5080278;28;20040;-65
2022/05/20 06:47:36;;;;;;;20.05;14.35;;;15.10;99.90;;;;;;5082018;28;20052;-64
2022/05/20 06:50:02;;;;;;;18.52;13.43;;;15.20;99.90;;;;;;5081489;28;20048;-65
2022/05/20 06:52:28;;;;;;;17.90;12.85;;;15.20;99.90;;;;;;5079697;28;20085;-64
2022/05/20 06:54:53;;;;;;;21.63;13.07;;;15.20;99.90;;;;;;5078694;28;20040;-62
2022/05/20 06:57:20;;;;;;;15.43;11.75;;;15.20;99.90;;;;;;5064139;28;20113;-65
2022/05/20 06:59:46;;;;;;;13.00;11.25;;;15.30;99.90;;;;;;5073609;28;20036;-64
2022/05/20 07:02:12;;;;;;;17.35;12.18;;;15.30;99.90;;;;;;5071105;28;20131;-62
2022/05/20 07:04:37;;;;;;;16.92;12.73;;;15.40;99.90;;;;;;5081941;28;20029;-65
2022/05/20 07:07:05;;;;;;;18.58;13.57;;;15.40;99.90;;;;;;5083630;28;20048;-65
2022/05/20 07:09:31;;;;;;;17.75;13.55;;;15.50;99.90;;;;;;5072673;28;20044;-65
2022/05/20 07:11:57;;;;;;;17.95;12.50;;;15.50;99.90;;;;;;5083011;28;20417;-65
2022/05/20 07:14:23;;;;;;;15.80;12.65;;;15.60;99.90;;;;;;5088728;28;20039;-64
2022/05/20 07:16:49;;;;;;;13.63;11.13;;;15.60;99.90;;;;;;5095770;28;20072;-64
2022/05/20 07:19:15;;;;;;;15.13;10.45;;;15.70;99.90;;;;;;5082764;28;20135;-63
2022/05/20 07:21:41;;;;;;;14.35;10.93;;;15.80;99.90;;;;;;5090185;28;20501;-64
2022/05/20 07:24:07;;;;;;;14.65;10.80;;;15.80;99.90;;;;;;5090784;28;20028;-64
2022/05/20 07:26:33;;;;;;;12.82;10.02;;;15.90;99.90;;;;;;5071784;28;20040;-65
2022/05/20 07:28:59;;;;;;;13.13;9.82;;;15.90;99.90;;;;;;5074620;28;20043;-64
2022/05/20 07:31:25;;;;;;;14.70;9.13;;;15.90;99.90;;;;;;5085821;28;20036;-64
2022/05/20 07:33:51;;;;;;;13.27;9.13;;;16.00;99.90;;;;;;5065739;28;20046;-65
2022/05/20 07:36:17;;;;;;;13.13;8.77;;;16.00;99.90;;;;;;5082848;28;20080;-65
2022/05/20 07:38:43;;;;;;;12.52;9.38;;;16.10;99.90;;;;;;5079818;28;20064;-62
2022/05/20 07:41:09;;;;;;;15.10;9.85;;;16.00;99.90;;;;;;5072199;28;20036;-62
2022/05/20 07:43:35;;;;;;;13.52;9.75;;;16.00;99.90;;;;;;5080820;28;20131;-63
2022/05/20 07:46:01;;;;;;;13.63;8.95;;;16.00;99.90;;;;;;5075561;28;20119;-65
2022/05/20 07:48:28;;;;;;;13.60;9.13;;;16.00;99.90;;;;;;5084631;28;20450;-63
2022/05/20 07:51:05;;;;;;;13.18;9.25;;;16.10;99.90;;;;;;5079345;28;20059;-64
2022/05/20 07:53:36;;;;;;;12.75;9.20;;;16.20;99.90;;;;;;5078040;28;20139;-65
2022/05/20 07:56:49;;;;;;;16.90;9.73;;;16.20;99.90;;;;;;5081325;28;20098;-65
2022/05/20 07:59:27;;;;;;;16.02;9.00;;;16.30;99.90;;;;;;5078710;28;20419;-65
2022/05/20 08:01:54;;;;;;;13.85;9.75;;;16.30;99.90;;;;;;5086069;28;20118;-65
2022/05/20 08:07:09;;;;;;;13.88;10.10;;;16.40;99.90;;;;;;5074529;28;20048;-65
2022/05/20 08:09:36;;;;;;;12.43;8.65;;;16.50;99.90;;;;;;5077117;28;20459;-65
2022/05/20 08:12:02;;;;;;;14.07;8.82;;;16.70;99.90;;;;;;5076516;28;20123;-63
2022/05/20 08:14:28;;;;;;;11.60;8.60;;;16.80;99.90;;;;;;5090421;28;20120;-65
2022/05/20 08:16:57;;;;;;;13.00;9.90;;;17.00;99.90;;;;;;5084050;28;20040;-63
2022/05/20 08:19:22;;;;;;;13.50;9.70;;;17.10;99.90;;;;;;5079011;28;20040;-64
2022/05/20 08:21:48;;;;;;;14.27;9.38;;;17.20;99.90;;;;;;5057007;28;20033;-65
2022/05/20 08:24:14;;;;;;;13.88;8.90;;;17.20;99.90;;;;;;5084800;28;20035;-62
2022/05/20 08:26:39;;;;;;;11.38;8.38;;;17.30;99.90;;;;;;5080157;28;20044;-65
2022/05/20 08:29:06;;;;;;;11.35;7.85;;;17.30;99.90;;;;;;5079270;28;21091;-64
2022/05/20 08:31:32;;;;;;;10.82;7.90;;;17.30;99.90;;;;;;5077081;28;20040;-66
2022/05/20 08:33:59;;;;;;;10.57;7.82;;;17.30;99.90;;;;;;5076272;28;20071;-65
2022/05/20 08:36:26;;;;;;;9.38;6.68;;;17.30;99.90;;;;;;5074268;28;20047;-66
2022/05/20 08:38:51;;;;;;;12.70;8.38;;;17.40;99.90;;;;;;5082004;28;20097;-64
2022/05/20 08:41:26;;;;;;;11.60;8.23;;;17.60;99.90;;;;;;5070641;28;20028;-67
2022/05/20 08:43:51;;;;;;;11.93;8.32;;;17.70;99.90;;;;;;5070144;28;20518;-65
2022/05/20 08:46:20;;;;;;;10.60;7.50;;;17.90;99.90;;;;;;5088824;28;20059;-65
2022/05/20 08:48:49;;;;;;;9.65;7.40;;;18.00;99.90;;;;;;5080257;28;20044;-66
2022/05/20 08:51:14;;;;;;;9.77;7.03;;;18.10;99.90;;;;;;5071625;28;20032;-63
2022/05/20 08:53:43;;;;;;;10.23;6.95;;;18.30;99.90;;;;;;5083972;28;20036;-66
2022/05/20 08:56:15;;;;;;;10.77;7.30;;;18.50;99.90;;;;;;5095616;28;20239;-64
2022/05/20 08:58:46;;;;;;;;;;;18.70;99.90;;;;;;5093036;28;20157;-66
2022/05/20 09:01:11;;;;;;;9.77;7.13;;;18.80;99.90;;;;;;5067525;28;19946;-66
2022/05/20 09:03:37;;;;;;;12.43;7.50;;;18.90;99.90;;;;;;5082175;28;20032;-63
2022/05/20 09:06:12;;;;;;;9.18;7.38;;;19.00;99.90;;;;;;5079522;28;20119;-65
2022/05/20 09:08:38;;;;;;;9.10;6.10;;;19.10;99.90;;;;;;5071831;28;20124;-66
2022/05/20 09:11:11;;;;;;;9.13;5.95;;;19.10;99.90;;;;;;5080222;28;20130;-66
2022/05/20 09:16:24;;;;;;;8.65;5.53;;;19.50;99.90;;;;;;5071954;28;20047;-66
2022/05/20 09:19:07;;;;;;;9.00;5.82;;;19.70;99.90;;;;;;5081774;28;20032;-63
2022/05/20 09:21:38;;;;;;;12.02;6.53;;;19.80;99.00;;;;;;5079563;28;20035;-64
2022/05/20 09:24:07;;;;;;;9.85;6.60;;;19.90;99.60;;;;;;5078344;28;20065;-66
2022/05/20 09:26:38;;;;;;;10.02;7.18;;;19.90;99.70;;;;;;5085416;28;20449;-66
2022/05/20 09:29:21;;;;;;;10.88;6.95;;;19.90;98.60;;;;;;5064145;28;20974;-66
2022/05/20 09:32:13;;;;;;;7.53;5.65;;;19.90;98.30;;;;;;5064384;28;20044;-65
2022/05/20 09:34:41;;;;;;;10.20;6.22;;;19.90;98.50;;;;;;5075042;28;20079;-66
2022/05/20 09:37:19;;;;;;;9.90;6.47;;;20.00;99.20;;;;;;5070604;28;20071;-66
2022/05/20 09:39:48;;;;;;;8.90;6.00;;;20.00;98.40;;;;;;5060071;28;20048;-66
2022/05/20 09:42:16;;;;;;;9.35;5.95;;;20.10;99.00;;;;;;5070986;28;20062;-67
2022/05/20 09:44:45;;;;;;;8.38;6.63;;;20.00;98.50;;;;;;5070971;28;20293;-64
2022/05/20 09:47:20;;;;;;;10.15;6.45;;;20.00;98.10;;;;;;5088307;28;20459;-65
2022/05/20 09:50:13;;;;;;;9.52;5.88;;;19.80;97.40;;;;;;5084755;28;20036;-63
2022/05/20 09:53:21;;;;;;;9.82;6.57;;;19.60;96.50;;;;;;5082293;28;20177;-66
2022/05/20 09:55:47;;;;;;;7.57;5.38;;;19.60;97.10;;;;;;5077295;28;20445;-65
2022/05/20 09:58:18;;;;;;;8.38;5.25;;;19.60;98.10;;;;;;5073475;28;20057;-66
2022/05/20 10:01:08;;;;;;;7.90;5.70;;;19.70;98.30;;;;;;5068540;28;20036;-66
2022/05/20 10:03:41;;;;;;;7.50;6.28;;;19.70;98.30;;;;;;5070022;28;20154;-66
2022/05/20 10:06:28;;;;;;;7.20;5.18;;;19.80;98.50;;;;;;5078178;28;20085;-65
2022/05/20 10:09:15;;;;;;;7.65;5.50;;;19.90;98.50;;;;;;5071093;28;20032;-63
2022/05/20 10:11:56;;;;;;;10.73;6.25;;;20.10;98.40;;;;;;5067252;28;20088;-66
2022/05/20 10:14:27;;;;;;;9.50;5.37;;;20.20;98.20;;;;;;5085036;28;20040;-66
2022/05/20 10:17:11;;;;;;;8.10;5.70;;;20.20;98.00;;;;;;5079657;28;20307;-66
2022/05/20 10:20:01;;;;;;;9.45;5.10;;;20.30;97.60;;;;;;5085453;28;20077;-66
2022/05/20 10:22:45;;;;;;;7.72;5.72;;;20.30;96.50;;;;;;5069363;28;20082;-66
2022/05/20 10:25:50;;;;;;;8.63;6.07;;;20.50;96.90;;;;;;5078050;28;20040;-66
2022/05/20 10:34:37;;;;;;;7.38;5.45;;;20.50;96.50;;;;;;5073133;28;20043;-63
2022/05/20 10:37:33;;;;;;;9.50;4.60;;;20.50;97.00;;;;;;5077579;28;20047;-65
2022/05/20 10:40:17;;;;;;;8.07;5.82;;;20.60;96.40;;;;;;5075510;28;20033;-66
2022/05/20 10:43:04;;;;;;;7.50;5.90;;;20.60;96.30;;;;;;5073825;28;20036;-66
2022/05/20 10:48:43;;;;;;;8.68;5.78;;;20.60;94.50;;;;;;5081044;28;20048;-66
2022/05/20 10:51:15;;;;;;;7.25;5.43;;;20.50;95.50;;;;;;5083260;28;20047;-66
2022/05/20 10:53:53;;;;;;;7.47;5.47;;;20.50;94.80;;;;;;5084544;28;20067;-63
2022/05/20 10:56:39;;;;;;;6.68;4.75;;;20.50;94.60;;;;;;5084854;28;20032;-66
2022/05/20 10:59:38;;;;;;;6.93;4.82;;;20.70;94.70;;;;;;5087155;28;20044;-64
2022/05/20 11:02:39;;;;;;;6.70;4.32;;;20.90;94.60;;;;;;5074565;28;20244;-67
2022/05/20 11:05:41;;;;;;;8.15;5.72;;;21.10;94.30;;;;;;4982859;28;20050;-64
2022/05/20 11:08:42;;;;;;;9.68;4.88;;;21.10;91.00;;;;;;5081923;28;20051;-65
2022/05/20 11:11:29;;;;;;;7.95;4.45;;;21.20;91.20;;;;;;5099667;28;20493;-66
2022/05/20 11:14:16;;;;;;;8.30;4.97;;;21.30;92.10;;;;;;5074561;28;20043;-66
2022/05/20 11:16:55;;;;;;;6.78;4.05;;;21.30;91.40;;;;;;5087809;28;20040;-67
2022/05/20 11:19:52;;;;;;;7.40;4.93;;;21.40;91.30;;;;;;5080279;28;20485;-64
2022/05/20 11:22:37;;;;;;;6.22;4.10;;;21.50;90.50;;;;;;5060957;28;20418;-67
2022/05/20 11:25:18;;;;;;;6.70;4.32;;;21.70;91.50;;;;;;5088173;28;21028;-65
2022/05/20 11:27:59;;;;;;;6.70;3.97;;;21.90;90.70;;;;;;5073920;28;20045;-65
2022/05/20 11:30:24;;;;;;;6.65;3.90;;;22.10;90.00;;;;;;5081346;28;20036;-65
2022/05/20 11:33:39;;;;;;;6.22;3.83;;;22.40;90.40;;;;;;5072489;28;20575;-67
2022/05/20 11:36:07;;;;;;;7.10;5.03;;;22.60;87.70;;;;;;5044247;28;20415;-67
2022/05/20 11:38:54;;;;;;;6.75;5.22;;;22.70;90.20;;;;;;5075884;28;20036;-67
2022/05/20 11:41:31;;;;;;;6.68;4.32;;;22.70;88.80;;;;;;5073332;28;20036;-66
2022/05/20 11:44:24;;;;;;;6.18;4.70;;;22.60;88.00;;;;;;5079344;28;20108;-66
2022/05/20 11:47:07;;;;;;;7.22;4.00;;;22.50;88.30;;;;;;5070512;28;20047;-66
2022/05/20 11:49:35;;;;;;;8.35;4.38;;;22.40;87.70;;;;;;5074108;28;20044;-67
2022/05/20 11:52:17;;;;;;;6.57;5.30;;;22.30;88.10;;;;;;5077593;28;20141;-67
2022/05/20 11:55:08;;;;;;;9.60;5.55;;;22.30;86.50;;;;;;5069680;28;20370;-67
2022/05/20 11:57:38;;;;;;;8.70;6.68;;;22.00;84.60;;;;;;5067640;28;20839;-66
2022/05/20 12:00:19;;;;;;;7.50;6.75;;;21.90;86.20;;;;;;5075397;28;20036;-64
2022/05/20 12:03:07;;;;;;;9.45;6.25;;;21.80;86.10;;;;;;5096775;28;20044;-66
2022/05/20 12:05:37;;;;;;;6.75;5.72;;;21.70;86.30;;;;;;5079631;28;20040;-67
2022/05/20 12:08:03;;;;;;;8.57;6.72;;;21.60;87.00;;;;;;5072784;28;20149;-66
2022/05/20 12:10:32;;;;;;;9.23;6.07;;;21.50;87.50;;;;;;5068867;28;20252;-67
2022/05/20 12:13:19;;;;;;;8.82;5.47;;;21.50;87.80;;;;;;5069665;28;20036;-66
2022/05/20 12:15:49;;;;;;;9.02;5.18;;;21.40;86.60;;;;;;5075318;28;20040;-65
2022/05/20 12:24:40;;;;;;;5.50;3.85;;;21.30;87.80;;;;;;5072860;28;20090;-66
2022/05/20 12:27:37;;;;;;;8.10;4.90;;;21.40;87.40;;;;;;5071054;28;20040;-67
2022/05/20 12:30:30;;;;;;;5.63;4.00;;;21.50;87.50;;;;;;5072504;28;20029;-67
2022/05/20 12:32:56;;;;;;;9.00;5.22;;;21.50;87.40;;;;;;5082750;28;20064;-67
2022/05/20 12:35:31;;;;;;;11.45;6.70;;;21.50;87.90;;;;;;5073278;28;20068;-64
2022/05/20 12:38:21;;;;;;;8.35;5.00;;;21.50;87.80;;;;;;5070263;28;20071;-64
2022/05/20 12:40:50;;;;;;;10.15;6.53;;;21.60;88.50;;;;;;5072194;28;20383;-67
2022/05/20 12:43:16;;;;;;;7.97;6.00;;;21.50;88.50;;;;;;5072078;28;20028;-66
2022/05/20 12:45:56;;;;;;;7.15;6.30;;;21.50;88.10;;;;;;5073159;28;20089;-66
2022/05/20 12:48:25;;;;;;;6.90;5.45;;;21.50;88.20;;;;;;5071174;28;20027;-66
2022/05/20 12:51:08;;;;;;;6.28;5.30;;;21.40;88.50;;;;;;5069505;28;20119;-67
2022/05/20 12:53:37;;;;;;;6.65;4.80;;;21.30;87.00;;;;;;5077046;28;20395;-66
2022/05/20 12:56:03;;;;;;;6.07;4.78;;;21.20;87.40;;;;;;5071072;28;20020;-65
2022/05/20 12:58:32;;;;;;;8.82;4.43;;;21.10;87.50;;;;;;5069338;28;20092;-65
2022/05/20 13:01:02;;;;;;;8.10;5.50;;;20.90;87.10;;;;;;5079324;28;20036;-64
2022/05/20 13:03:42;;;;;;;6.35;5.30;;;20.80;87.10;;;;;;5075253;28;20044;-66
2022/05/20 13:06:27;;;;;;;6.85;5.38;;;20.70;87.00;;;;;;5076208;28;20062;-64
2022/05/20 13:09:04;;;;;;;8.65;5.60;;;20.50;87.00;;;;;;5076178;28;20120;-66
2022/05/20 13:11:42;;;;;;;6.82;5.30;;;20.40;87.60;;;;;;5073773;28;20040;-66
2022/05/20 13:14:12;;;;;;;8.13;5.25;;;20.20;88.20;;;;;;5075580;28;20204;-67
2022/05/20 13:16:40;;;;;;;5.85;4.78;;;20.10;89.10;;;;;;5073685;28;20279;-67
2022/05/20 13:19:12;;;;;;;8.60;6.68;;;20.00;89.70;;;;;;5071208;28;20045;-67
2022/05/20 13:21:50;;;;;;;9.20;6.72;;;19.90;89.90;;;;;;5092209;28;20081;-67
2022/05/20 13:24:19;;;;;;;9.60;5.72;;;19.80;90.50;;;;;;5081019;28;20043;-67
2022/05/20 13:26:45;;;;;;;9.68;6.30;;;19.70;90.80;;;;;;5071235;28;20433;-65
2022/05/20 13:29:17;;;;;;;9.02;6.93;;;19.70;91.20;;;;;;5073258;28;20211;-64
2022/05/20 13:31:42;;;;;;;9.77;7.03;;;19.60;91.80;;;;;;5075820;28;20393;-65
2022/05/20 13:34:09;;;;;;;12.30;7.72;;;19.40;92.40;;;;;;5076386;28;20236;-66
2022/05/20 13:36:42;;;;;;;10.50;7.07;;;19.30;93.40;;;;;;5073079;28;20083;-66
2022/05/20 13:39:11;;;;;;;9.15;7.43;;;19.20;94.10;;;;;;5069062;28;20089;-65
2022/05/20 13:41:39;;;;;;;10.55;8.13;;;19.00;94.80;;;;;;5070499;28;20040;-65
2022/05/20 13:44:07;;;;;;;8.95;7.90;;;19.00;96.00;;;;;;5073695;28;20048;-65